Time;durP1;ratioP1;P1;durP2;ratioP2;P2;SDS_P1;SDS_P2;PMS_P1;PMS_P2;Temp;Humidity;BMP_temperature;BMP_pressure;BME280_temperature;BME280_humidity;BME280_pressure;Samples;Min_cycle;Max_cycle;Signal;HPM_P1;HPM_P2
2022/07/31 00:01:54;;;;;;;2.35;1.85;;;24.20;73.00;;;;;;5012410;28;20274;-72
2022/07/31 00:04:27;;;;;;;3.05;2.35;;;24.20;73.20;;;;;;5015562;28;20258;-73
2022/07/31 00:06:57;;;;;;;3.22;2.20;;;24.20;73.30;;;;;;5017380;28;20176;-75
2022/07/31 00:09:25;;;;;;;3.55;2.10;;;24.20;73.30;;;;;;5037133;28;20208;-73
2022/07/31 00:11:50;;;;;;;2.70;1.85;;;24.10;73.30;;;;;;5018810;28;20191;-72
2022/07/31 00:14:18;;;;;;;2.28;1.95;;;24.10;73.40;;;;;;5019331;28;20203;-73
2022/07/31 00:16:44;;;;;;;3.13;1.98;;;24.00;73.40;;;;;;5019497;28;20179;-75
2022/07/31 00:19:10;;;;;;;2.58;2.03;;;24.00;73.60;;;;;;5020724;28;20206;-74
2022/07/31 00:21:37;;;;;;;2.55;1.90;;;23.90;73.50;;;;;;5019690;28;20195;-72
2022/07/31 00:24:05;;;;;;;2.90;2.00;;;23.90;73.70;;;;;;5020553;28;20190;-73
2022/07/31 00:26:33;;;;;;;2.67;1.60;;;23.90;74.30;;;;;;5020044;28;20182;-74
2022/07/31 00:29:01;;;;;;;2.05;1.70;;;23.80;74.00;;;;;;5022066;28;20191;-70
2022/07/31 00:31:27;;;;;;;2.38;1.75;;;23.70;74.10;;;;;;5018633;28;20177;-70
2022/07/31 00:33:53;;;;;;;3.22;2.08;;;23.60;74.20;;;;;;5020798;28;20262;-73
2022/07/31 00:36:18;;;;;;;2.15;1.73;;;23.60;74.50;;;;;;5019265;28;20641;-70
2022/07/31 00:38:44;;;;;;;4.78;1.73;;;23.50;74.70;;;;;;5019704;28;20211;-70
2022/07/31 00:41:12;;;;;;;2.40;1.85;;;23.50;74.70;;;;;;5019055;28;20207;-75
2022/07/31 00:43:37;;;;;;;3.30;2.28;;;23.40;74.90;;;;;;5020435;28;20179;-74
2022/07/31 00:46:06;;;;;;;3.17;2.25;;;23.40;75.10;;;;;;5017157;28;20199;-70
2022/07/31 00:48:32;;;;;;;2.67;1.90;;;23.40;75.60;;;;;;5020238;28;20262;-73
2022/07/31 00:50:58;;;;;;;2.88;1.83;;;23.30;75.40;;;;;;5019084;28;20190;-75
2022/07/31 00:53:26;;;;;;;3.17;2.22;;;23.30;75.60;;;;;;5021662;28;20266;-72
2022/07/31 00:55:56;;;;;;;2.80;1.77;;;23.30;76.20;;;;;;5020464;28;20171;-72
2022/07/31 00:58:22;;;;;;;3.83;1.73;;;23.30;75.90;;;;;;5019724;28;20221;-75
2022/07/31 01:00:48;;;;;;;4.30;1.92;;;23.20;75.90;;;;;;5019600;28;20183;-73
2022/07/31 01:03:18;;;;;;;3.22;1.67;;;23.20;76.10;;;;;;5019585;28;20183;-70
2022/07/31 01:05:46;;;;;;;2.38;1.60;;;23.20;76.30;;;;;;5020468;28;20223;-72
2022/07/31 01:08:12;;;;;;;2.83;1.50;;;23.20;76.30;;;;;;5016236;28;20202;-70
2022/07/31 01:10:46;;;;;;;2.30;1.55;;;23.20;76.50;;;;;;5021762;28;20191;-74
2022/07/31 01:13:33;;;;;;;2.30;1.58;;;23.20;77.40;;;;;;5014298;28;20249;-75
2022/07/31 01:16:04;;;;;;;2.20;1.58;;;23.20;78.10;;;;;;5018228;28;20183;-73
2022/07/31 01:18:33;;;;;;;2.20;1.50;;;23.10;77.00;;;;;;5014747;28;20294;-73
2022/07/31 01:21:06;;;;;;;2.03;1.30;;;23.10;77.20;;;;;;5019430;28;20160;-73
2022/07/31 01:23:40;;;;;;;1.75;1.50;;;23.10;77.40;;;;;;5020256;28;20202;-70
2022/07/31 01:26:31;;;;;;;2.42;1.80;;;23.10;77.50;;;;;;5021336;28;20209;-75
2022/07/31 01:29:04;;;;;;;1.98;1.52;;;23.00;77.70;;;;;;5018187;28;20194;-71
2022/07/31 01:31:38;;;;;;;1.75;1.40;;;23.00;77.50;;;;;;5022405;28;20270;-70
2022/07/31 01:34:34;;;;;;;1.52;1.40;;;23.00;77.80;;;;;;5020384;28;20254;-74
2022/07/31 01:37:09;;;;;;;2.30;1.90;;;22.90;78.10;;;;;;5017771;28;20183;-75
2022/07/31 01:39:37;;;;;;;1.98;1.50;;;22.90;78.00;;;;;;5020693;28;20186;-70
2022/07/31 01:42:08;;;;;;;1.90;1.50;;;22.80;77.50;;;;;;5020709;28;20172;-74
2022/07/31 01:44:43;;;;;;;1.70;1.50;;;22.80;77.90;;;;;;5018505;28;20203;-74
2022/07/31 01:47:11;;;;;;;2.00;1.45;;;22.70;78.30;;;;;;5021844;28;20178;-71
2022/07/31 01:49:40;;;;;;;3.30;1.70;;;22.70;78.20;;;;;;5021951;28;20490;-72
2022/07/31 01:52:08;;;;;;;3.50;1.40;;;22.70;78.20;;;;;;5018003;28;20179;-73
2022/07/31 01:54:37;;;;;;;3.05;1.80;;;22.70;78.40;;;;;;5016504;28;20183;-72
2022/07/31 01:57:07;;;;;;;4.22;1.60;;;22.60;78.40;;;;;;5018761;28;20287;-74
2022/07/31 01:59:40;;;;;;;2.85;1.58;;;22.60;78.60;;;;;;5019751;28;20210;-71
2022/07/31 02:02:08;;;;;;;1.52;1.40;;;22.60;79.20;;;;;;5017583;28;20183;-71
2022/07/31 02:04:37;;;;;;;1.55;1.45;;;22.60;78.90;;;;;;5019556;28;20190;-72
2022/07/31 02:07:06;;;;;;;2.00;1.38;;;22.50;78.90;;;;;;5016860;28;20199;-73
2022/07/31 02:09:35;;;;;;;2.00;1.30;;;22.50;79.10;;;;;;5018598;28;20194;-75
2022/07/31 02:12:03;;;;;;;1.88;1.40;;;22.50;79.40;;;;;;5019185;28;20198;-73
2022/07/31 02:14:30;;;;;;;4.13;1.58;;;22.50;79.40;;;;;;5017488;28;20251;-73
2022/07/31 02:16:58;;;;;;;2.05;1.60;;;22.50;79.60;;;;;;5020495;28;20242;-73
2022/07/31 02:19:27;;;;;;;2.10;1.40;;;22.50;79.70;;;;;;4999626;28;20269;-73
2022/07/31 02:21:54;;;;;;;1.63;1.50;;;22.40;80.70;;;;;;5005263;28;20179;-71
2022/07/31 02:24:22;;;;;;;1.63;1.40;;;22.40;80.10;;;;;;5004646;28;20185;-66
2022/07/31 02:26:49;;;;;;;1.63;1.40;;;22.40;80.20;;;;;;5009106;28;20175;-73
2022/07/31 02:29:18;;;;;;;1.90;1.35;;;22.40;80.40;;;;;;5003606;28;20211;-70
2022/07/31 02:31:45;;;;;;;1.92;1.48;;;22.40;80.60;;;;;;5009871;28;20193;-72
2022/07/31 02:34:18;;;;;;;1.77;1.50;;;22.40;80.70;;;;;;5025259;28;20943;-71
2022/07/31 02:36:46;;;;;;;1.27;1.17;;;22.40;81.00;;;;;;5003604;28;20207;-72
2022/07/31 02:39:15;;;;;;;3.25;1.50;;;22.40;80.70;;;;;;5004104;28;20217;-71
2022/07/31 02:41:41;;;;;;;1.55;1.20;;;22.40;81.00;;;;;;5007554;28;20290;-72
2022/07/31 02:44:13;;;;;;;3.75;1.30;;;22.40;80.70;;;;;;5011171;28;20922;-73
2022/07/31 02:46:39;;;;;;;1.65;1.25;;;22.40;81.20;;;;;;5006766;28;20179;-72
2022/07/31 02:49:09;;;;;;;1.75;1.60;;;22.40;81.00;;;;;;5007673;28;20207;-72
2022/07/31 02:51:35;;;;;;;2.67;1.85;;;22.40;81.10;;;;;;5009589;28;20498;-73
2022/07/31 02:54:00;;;;;;;5.03;1.80;;;22.30;81.20;;;;;;5009079;28;20242;-69
2022/07/31 02:56:29;;;;;;;4.20;1.60;;;22.40;81.60;;;;;;5004611;28;20191;-73
2022/07/31 02:58:55;;;;;;;2.85;1.50;;;22.30;81.90;;;;;;5008537;28;20202;-72
2022/07/31 03:01:23;;;;;;;2.05;1.58;;;22.30;81.80;;;;;;5008479;28;20218;-69
2022/07/31 03:03:49;;;;;;;1.50;1.30;;;22.20;82.00;;;;;;5007980;28;20186;-72
2022/07/31 03:06:15;;;;;;;1.92;1.60;;;22.20;82.20;;;;;;5007863;28;20193;-74
2022/07/31 03:08:41;;;;;;;2.38;1.38;;;22.20;82.50;;;;;;5009467;28;20236;-72
2022/07/31 03:11:09;;;;;;;1.55;1.40;;;22.20;82.70;;;;;;5011708;28;20219;-73
2022/07/31 03:13:36;;;;;;;2.08;1.60;;;22.20;82.80;;;;;;5008488;28;20219;-70
2022/07/31 03:16:04;;;;;;;2.03;1.50;;;22.20;83.10;;;;;;5011369;28;20182;-73
2022/07/31 03:18:31;;;;;;;1.70;1.17;;;22.20;83.30;;;;;;5009255;28;20211;-72
2022/07/31 03:21:02;;;;;;;2.50;1.60;;;22.20;83.30;;;;;;5009205;28;20224;-73
2022/07/31 03:23:35;;;;;;;2.17;1.40;;;22.20;83.20;;;;;;5006912;28;20258;-73
2022/07/31 03:26:01;;;;;;;2.33;1.52;;;22.20;83.30;;;;;;5007954;28;20221;-71
2022/07/31 03:28:27;;;;;;;2.75;1.80;;;22.20;83.60;;;;;;5005830;28;20201;-72
2022/07/31 03:30:54;;;;;;;2.30;1.55;;;22.20;83.80;;;;;;5010161;28;20191;-68
2022/07/31 03:33:20;;;;;;;1.52;1.33;;;22.20;83.90;;;;;;5009570;28;20210;-73
2022/07/31 03:35:47;;;;;;;1.40;1.30;;;22.20;83.90;;;;;;5011368;28;20198;-72
2022/07/31 03:38:12;;;;;;;2.13;1.63;;;22.20;84.10;;;;;;5008105;28;20235;-73
2022/07/31 03:40:41;;;;;;;1.73;1.40;;;22.20;84.00;;;;;;5012301;28;20171;-72
2022/07/31 03:43:10;;;;;;;2.15;1.60;;;22.20;84.30;;;;;;5014653;28;20258;-72
2022/07/31 03:45:38;;;;;;;1.98;1.52;;;22.20;84.50;;;;;;5011896;28;20206;-69
2022/07/31 03:48:07;;;;;;;2.65;1.58;;;22.20;84.20;;;;;;5013910;28;20201;-72
2022/07/31 03:50:36;;;;;;;1.98;1.60;;;22.20;84.20;;;;;;5011197;28;20187;-74
2022/07/31 03:53:04;;;;;;;1.70;1.23;;;22.20;84.30;;;;;;5011854;28;20202;-74
2022/07/31 03:55:36;;;;;;;2.25;1.45;;;22.20;84.20;;;;;;5009808;28;20186;-73
2022/07/31 03:58:05;;;;;;;1.48;1.38;;;22.20;84.40;;;;;;5010357;28;20290;-70
2022/07/31 04:00:33;;;;;;;1.55;1.20;;;22.20;84.20;;;;;;5012264;28;20202;-73
2022/07/31 04:03:05;;;;;;;2.90;1.27;;;22.20;84.20;;;;;;5005069;28;20263;-74
2022/07/31 04:05:33;;;;;;;2.85;1.70;;;22.30;85.00;;;;;;5012258;28;20174;-71
2022/07/31 04:08:02;;;;;;;1.77;1.30;;;22.30;84.90;;;;;;5027515;28;20186;-73
2022/07/31 04:10:30;;;;;;;1.77;1.40;;;22.30;84.60;;;;;;5012416;28;20195;-72
2022/07/31 04:12:56;;;;;;;1.42;1.30;;;22.30;84.80;;;;;;5007649;28;20198;-71
2022/07/31 04:15:21;;;;;;;2.33;1.67;;;22.30;84.70;;;;;;5008538;28;20187;-73
2022/07/31 04:17:49;;;;;;;3.30;1.52;;;22.30;84.80;;;;;;5005955;28;20191;-73
2022/07/31 04:20:18;;;;;;;1.33;1.20;;;22.30;85.20;;;;;;5006621;28;20190;-75
2022/07/31 04:22:44;;;;;;;2.03;1.35;;;22.30;85.10;;;;;;5011731;28;20199;-74
2022/07/31 04:25:10;;;;;;;1.50;1.20;;;22.30;85.10;;;;;;5012512;28;20200;-73
2022/07/31 04:27:38;;;;;;;2.22;1.45;;;22.30;85.20;;;;;;5007599;28;20198;-74
2022/07/31 04:30:04;;;;;;;2.45;1.50;;;22.30;85.40;;;;;;5005181;28;20190;-73
2022/07/31 04:32:30;;;;;;;2.13;1.27;;;22.30;85.20;;;;;;5008999;28;20218;-71
2022/07/31 04:34:55;;;;;;;2.42;1.40;;;22.30;85.40;;;;;;5006477;28;20199;-74
2022/07/31 04:37:21;;;;;;;1.83;1.33;;;22.30;85.50;;;;;;5005931;28;20213;-74
2022/07/31 04:39:47;;;;;;;2.50;1.40;;;22.40;85.70;;;;;;5011925;28;20194;-74
2022/07/31 04:42:12;;;;;;;1.65;1.40;;;22.40;85.90;;;;;;5008239;28;20207;-71
2022/07/31 04:44:38;;;;;;;1.58;1.30;;;22.40;85.80;;;;;;5013419;28;20171;-73
2022/07/31 04:47:07;;;;;;;1.98;1.70;;;22.50;85.90;;;;;;5010339;28;20182;-73
2022/07/31 04:49:35;;;;;;;1.70;1.27;;;22.50;86.10;;;;;;5012273;28;20183;-74
2022/07/31 04:52:04;;;;;;;1.80;1.33;;;22.60;86.30;;;;;;5013852;28;20218;-74
2022/07/31 04:54:32;;;;;;;1.98;1.50;;;22.60;86.10;;;;;;5003709;28;20203;-74
2022/07/31 04:57:00;;;;;;;1.50;1.33;;;22.60;85.90;;;;;;5009197;28;20174;-70
2022/07/31 04:59:28;;;;;;;2.38;1.45;;;22.60;85.80;;;;;;5014021;28;20214;-72
2022/07/31 05:01:56;;;;;;;1.75;1.50;;;22.70;86.10;;;;;;5007854;28;20206;-72
2022/07/31 05:04:22;;;;;;;1.70;1.52;;;22.70;86.20;;;;;;5009972;28;20187;-72
2022/07/31 05:06:50;;;;;;;1.50;1.35;;;22.70;86.20;;;;;;5008869;28;20189;-74
2022/07/31 05:09:21;;;;;;;2.28;1.38;;;22.80;86.50;;;;;;5009908;28;20210;-74
2022/07/31 05:11:51;;;;;;;2.13;1.58;;;22.80;86.70;;;;;;5022224;28;20186;-74
2022/07/31 05:14:21;;;;;;;2.83;1.40;;;22.80;86.50;;;;;;5012354;28;20203;-74
2022/07/31 05:16:48;;;;;;;3.63;1.40;;;22.80;86.20;;;;;;5014883;28;20189;-73
2022/07/31 05:19:13;;;;;;;2.15;1.50;;;22.90;86.30;;;;;;5007628;28;20207;-73
2022/07/31 05:21:41;;;;;;;1.67;1.40;;;22.90;86.30;;;;;;5004444;28;20199;-74
2022/07/31 05:24:07;;;;;;;1.75;1.30;;;22.90;86.40;;;;;;5010184;28;20187;-73
2022/07/31 05:26:32;;;;;;;2.00;1.30;;;22.90;86.40;;;;;;5010778;28;20270;-72
2022/07/31 05:28:59;;;;;;;1.65;1.20;;;22.90;86.60;;;;;;5011064;28;20270;-72
2022/07/31 05:31:25;;;;;;;1.50;1.40;;;23.00;86.70;;;;;;5007520;28;20262;-73
2022/07/31 05:33:51;;;;;;;1.60;1.35;;;23.00;86.70;;;;;;5007163;28;20206;-72
2022/07/31 05:36:17;;;;;;;2.42;1.38;;;23.00;86.60;;;;;;5013803;28;20186;-73
2022/07/31 05:38:44;;;;;;;1.55;1.40;;;23.10;86.60;;;;;;5006452;28;20226;-73
2022/07/31 05:41:12;;;;;;;1.77;1.25;;;23.10;86.60;;;;;;5010951;28;20178;-70
2022/07/31 05:43:38;;;;;;;1.70;1.50;;;23.10;86.70;;;;;;5011667;28;20210;-73
2022/07/31 05:46:05;;;;;;;2.53;1.70;;;23.20;86.50;;;;;;5008405;28;20179;-74
2022/07/31 05:48:31;;;;;;;2.13;1.63;;;23.20;86.20;;;;;;5006486;28;20210;-73
2022/07/31 05:51:02;;;;;;;1.80;1.50;;;23.20;86.20;;;;;;5010536;28;20198;-73
2022/07/31 05:53:29;;;;;;;1.85;1.50;;;23.20;86.50;;;;;;5013389;28;20182;-73
2022/07/31 05:55:57;;;;;;;2.88;1.45;;;23.30;86.60;;;;;;5010199;28;20180;-73
2022/07/31 05:58:23;;;;;;;1.95;1.40;;;23.30;86.70;;;;;;5004925;28;20248;-71
2022/07/31 06:00:49;;;;;;;2.53;1.45;;;23.30;86.90;;;;;;5010151;28;20214;-71
2022/07/31 06:03:17;;;;;;;1.83;1.27;;;23.40;86.90;;;;;;5000843;28;20187;-74
2022/07/31 06:05:43;;;;;;;3.13;1.40;;;23.40;86.70;;;;;;5002999;28;20190;-73
2022/07/31 06:08:11;;;;;;;2.55;1.40;;;23.40;86.50;;;;;;5004728;28;20286;-73
2022/07/31 06:10:39;;;;;;;1.73;1.35;;;23.50;86.40;;;;;;5006109;28;20203;-72
2022/07/31 06:13:07;;;;;;;1.48;1.38;;;23.60;86.50;;;;;;5006998;28;20584;-74
2022/07/31 06:15:32;;;;;;;1.67;1.20;;;23.60;86.20;;;;;;5008014;28;20190;-72
2022/07/31 06:17:58;;;;;;;1.58;1.33;;;23.60;86.80;;;;;;5007897;28;20209;-71
2022/07/31 06:20:27;;;;;;;1.80;1.25;;;23.70;86.00;;;;;;5007525;28;20443;-74
2022/07/31 06:22:53;;;;;;;2.72;1.25;;;23.70;85.50;;;;;;5003470;28;20285;-74
2022/07/31 06:25:19;;;;;;;1.90;1.42;;;23.70;85.40;;;;;;5008386;28;20167;-73
2022/07/31 06:27:44;;;;;;;1.63;1.23;;;23.80;85.50;;;;;;5009440;28;20184;-74
2022/07/31 06:30:11;;;;;;;1.58;1.27;;;23.80;85.40;;;;;;5003088;28;20289;-74
2022/07/31 06:32:41;;;;;;;2.65;1.60;;;23.90;85.60;;;;;;5005678;28;20226;-72
2022/07/31 06:35:07;;;;;;;4.97;1.40;;;23.90;85.40;;;;;;5006541;28;20182;-72
2022/07/31 06:37:33;;;;;;;1.63;1.20;;;23.90;85.20;;;;;;5004522;28;20264;-74
2022/07/31 06:40:01;;;;;;;2.92;1.17;;;24.00;85.30;;;;;;5004374;28;20202;-72
2022/07/31 06:42:29;;;;;;;2.13;1.60;;;24.00;85.40;;;;;;5005614;28;20210;-74
2022/07/31 06:44:54;;;;;;;1.50;1.30;;;24.00;85.40;;;;;;5006170;28;20286;-72
2022/07/31 06:47:24;;;;;;;2.03;1.35;;;24.10;85.50;;;;;;5005869;28;20202;-72
2022/07/31 06:49:51;;;;;;;1.60;1.30;;;24.10;85.40;;;;;;5003709;28;20261;-72
2022/07/31 06:52:17;;;;;;;1.52;1.23;;;24.10;85.40;;;;;;5008792;28;20246;-74
2022/07/31 06:54:43;;;;;;;3.35;1.20;;;24.20;85.40;;;;;;5008772;28;20206;-73
2022/07/31 06:57:11;;;;;;;2.08;1.85;;;24.20;85.40;;;;;;5005031;28;20206;-73
2022/07/31 06:59:38;;;;;;;6.20;5.25;;;24.20;85.40;;;;;;5004693;28;20276;-72
2022/07/31 07:02:03;;;;;;;3.42;2.75;;;24.30;85.60;;;;;;5010195;28;20203;-73
2022/07/31 07:04:29;;;;;;;2.78;2.15;;;24.30;85.60;;;;;;5010899;28;20259;-74
2022/07/31 07:06:57;;;;;;;2.67;1.70;;;24.30;85.50;;;;;;5005528;28;20195;-75
2022/07/31 07:09:23;;;;;;;2.13;1.63;;;24.40;85.70;;;;;;5008891;28;20183;-73
2022/07/31 07:11:48;;;;;;;2.67;1.50;;;24.50;85.60;;;;;;5010412;28;20258;-74
2022/07/31 07:14:15;;;;;;;1.80;1.35;;;24.50;85.50;;;;;;5007372;28;20302;-73
2022/07/31 07:16:40;;;;;;;4.20;1.83;;;24.50;85.40;;;;;;5007977;28;20253;-72
2022/07/31 07:19:11;;;;;;;2.55;1.92;;;24.50;85.30;;;;;;5017313;28;20194;-73
2022/07/31 07:21:36;;;;;;;2.15;1.60;;;24.50;85.80;;;;;;5014233;28;20202;-72
2022/07/31 07:24:02;;;;;;;2.13;1.92;;;24.50;85.00;;;;;;5014210;28;20182;-74
2022/07/31 07:26:28;;;;;;;2.70;1.63;;;24.60;85.10;;;;;;5029762;28;20190;-73
2022/07/31 07:29:00;;;;;;;1.75;1.50;;;24.60;85.00;;;;;;5016303;28;20183;-70
2022/07/31 07:31:28;;;;;;;1.40;1.30;;;24.60;84.90;;;;;;5016267;28;20190;-72
2022/07/31 07:33:54;;;;;;;1.90;1.30;;;24.60;84.80;;;;;;5011307;28;20226;-72
2022/07/31 07:36:23;;;;;;;2.00;1.70;;;24.60;84.80;;;;;;5014452;28;20207;-73
2022/07/31 07:38:49;;;;;;;3.40;2.90;;;24.60;84.80;;;;;;5015141;28;20278;-73
2022/07/31 07:41:17;;;;;;;2.88;2.58;;;24.60;84.80;;;;;;5015133;28;20174;-72
2022/07/31 07:43:42;;;;;;;4.35;1.90;;;24.70;84.80;;;;;;5013698;28;20266;-73
2022/07/31 07:46:08;;;;;;;2.00;1.60;;;24.60;84.80;;;;;;5009891;28;20241;-72
2022/07/31 07:48:34;;;;;;;1.95;1.58;;;24.70;84.80;;;;;;5014513;28;20194;-73
2022/07/31 07:50:59;;;;;;;3.30;1.63;;;24.70;84.70;;;;;;5011389;28;20210;-73
2022/07/31 07:53:25;;;;;;;1.90;1.48;;;24.70;84.70;;;;;;5013358;28;20203;-72
2022/07/31 07:55:51;;;;;;;1.67;1.58;;;24.70;84.80;;;;;;5013813;28;20209;-73
2022/07/31 07:58:18;;;;;;;1.88;1.40;;;24.70;84.80;;;;;;5014188;28;20199;-74
2022/07/31 08:00:46;;;;;;;2.40;1.40;;;24.70;84.90;;;;;;5015926;28;20281;-70
2022/07/31 08:03:12;;;;;;;3.30;2.67;;;24.70;84.90;;;;;;5015829;28;20194;-74
2022/07/31 08:05:40;;;;;;;4.50;3.55;;;24.80;84.90;;;;;;5015185;28;20209;-74
2022/07/31 08:08:05;;;;;;;3.70;3.22;;;24.80;84.90;;;;;;5014884;28;20194;-73
2022/07/31 08:10:38;;;;;;;2.50;2.10;;;24.80;85.00;;;;;;5012341;28;20186;-73
2022/07/31 08:13:06;;;;;;;2.05;1.73;;;24.90;85.20;;;;;;5014561;28;20187;-74
2022/07/31 08:15:31;;;;;;;3.50;1.73;;;24.90;85.30;;;;;;5013670;28;20281;-72
2022/07/31 08:18:00;;;;;;;2.20;1.63;;;25.00;85.30;;;;;;5010171;28;20238;-74
2022/07/31 08:20:25;;;;;;;1.67;1.33;;;25.10;85.00;;;;;;5015335;28;20183;-72
2022/07/31 08:22:53;;;;;;;1.73;1.23;;;25.10;84.90;;;;;;5012297;28;20195;-73
2022/07/31 08:25:19;;;;;;;1.85;1.20;;;25.20;84.50;;;;;;5005588;28;20207;-74
2022/07/31 08:27:48;;;;;;;4.05;1.88;;;25.20;84.20;;;;;;5026871;28;20187;-74
2022/07/31 08:30:16;;;;;;;2.35;1.50;;;25.20;84.10;;;;;;5015648;28;20214;-71
2022/07/31 08:32:44;;;;;;;2.55;1.30;;;25.20;84.20;;;;;;5016809;28;20198;-74
2022/07/31 08:35:10;;;;;;;2.20;1.42;;;25.20;84.00;;;;;;5011250;28;20194;-73
2022/07/31 08:37:35;;;;;;;1.42;1.20;;;25.30;83.90;;;;;;5012972;28;20202;-72
2022/07/31 08:40:03;;;;;;;2.45;1.40;;;25.30;84.00;;;;;;5014986;28;20208;-75
2022/07/31 08:42:32;;;;;;;3.65;1.52;;;25.40;83.90;;;;;;5013609;28;20230;-74
2022/07/31 08:44:58;;;;;;;2.50;1.90;;;25.40;83.60;;;;;;5011198;28;20195;-73
2022/07/31 08:47:26;;;;;;;1.58;1.38;;;25.40;83.70;;;;;;5012076;28;20183;-72
2022/07/31 08:49:54;;;;;;;2.45;1.50;;;25.50;84.10;;;;;;5008520;28;20223;-73
2022/07/31 08:52:24;;;;;;;1.58;1.20;;;25.50;84.20;;;;;;5008026;28;20192;-74
2022/07/31 08:54:51;;;;;;;2.08;1.40;;;25.60;84.00;;;;;;5005186;28;20192;-74
2022/07/31 08:57:17;;;;;;;1.52;1.30;;;25.70;83.90;;;;;;5008338;28;20186;-73
2022/07/31 08:59:45;;;;;;;1.70;1.23;;;25.70;83.40;;;;;;5006971;28;20306;-74
2022/07/31 09:02:12;;;;;;;1.58;1.27;;;25.70;83.10;;;;;;5005848;28;20187;-74
2022/07/31 09:04:40;;;;;;;1.98;1.10;;;25.70;83.20;;;;;;5007530;28;20246;-74
2022/07/31 09:07:13;;;;;;;1.40;1.10;;;25.70;82.90;;;;;;5004341;28;20272;-73
2022/07/31 09:09:44;;;;;;;1.88;1.20;;;25.70;82.70;;;;;;5002282;28;20187;-74
2022/07/31 09:12:12;;;;;;;3.00;1.27;;;25.70;82.90;;;;;;5003464;28;20179;-74
2022/07/31 09:14:37;;;;;;;1.30;1.20;;;25.70;83.10;;;;;;5004120;28;20246;-73
2022/07/31 09:17:08;;;;;;;2.17;1.10;;;25.70;83.20;;;;;;5004414;28;20230;-74
2022/07/31 09:19:40;;;;;;;2.00;1.33;;;25.70;83.40;;;;;;5005237;28;20218;-73
2022/07/31 09:22:19;;;;;;;1.60;1.17;;;25.80;83.20;;;;;;5005840;28;20179;-75
2022/07/31 09:24:46;;;;;;;1.73;1.23;;;26.00;83.50;;;;;;5003471;28;20242;-74
2022/07/31 09:27:16;;;;;;;4.30;1.15;;;26.10;83.30;;;;;;5004167;28;20226;-75
2022/07/31 09:29:45;;;;;;;2.35;1.17;;;26.10;82.80;;;;;;5006812;28;20187;-74
2022/07/31 09:32:14;;;;;;;1.40;1.08;;;26.20;82.50;;;;;;5006526;28;20214;-75
2022/07/31 09:34:43;;;;;;;1.70;1.50;;;26.20;82.60;;;;;;5015561;28;20206;-73
2022/07/31 09:37:13;;;;;;;1.73;1.23;;;26.20;82.70;;;;;;5000155;28;20254;-74
2022/07/31 09:39:39;;;;;;;1.63;1.30;;;26.30;82.90;;;;;;5008251;28;20196;-71
2022/07/31 09:42:08;;;;;;;1.35;1.10;;;26.30;82.70;;;;;;5008221;28;20168;-68
2022/07/31 09:44:38;;;;;;;2.25;1.30;;;26.40;82.30;;;;;;5009750;28;20202;-73
2022/07/31 09:47:05;;;;;;;1.15;1.00;;;26.30;82.00;;;;;;5002716;28;20182;-75
2022/07/31 09:49:35;;;;;;;4.90;1.10;;;26.30;81.90;;;;;;5011125;28;20178;-72
2022/07/31 09:52:01;;;;;;;1.27;0.88;;;26.30;81.90;;;;;;5003431;28;20191;-75
2022/07/31 09:54:30;;;;;;;1.55;0.95;;;26.40;83.00;;;;;;5006270;28;20180;-75
2022/07/31 09:57:12;;;;;;;0.75;0.75;;;26.50;82.30;;;;;;5002729;28;20218;-75
2022/07/31 09:59:37;;;;;;;0.98;0.88;;;26.50;82.20;;;;;;5010905;28;20221;-69
2022/07/31 10:02:06;;;;;;;1.52;1.02;;;26.70;82.60;;;;;;5002219;28;20290;-72
2022/07/31 10:04:32;;;;;;;1.70;0.90;;;26.80;82.10;;;;;;5006901;28;20193;-73
2022/07/31 10:06:59;;;;;;;1.58;0.90;;;26.90;81.80;;;;;;5011868;28;20176;-71
2022/07/31 10:09:25;;;;;;;2.55;1.00;;;27.00;81.70;;;;;;5010906;28;20310;-73
2022/07/31 10:11:52;;;;;;;1.05;0.90;;;27.10;80.90;;;;;;5007077;28;20324;-74
2022/07/31 10:14:24;;;;;;;1.20;1.02;;;27.10;80.30;;;;;;5015085;28;20245;-73
2022/07/31 10:16:53;;;;;;;1.70;0.70;;;27.10;79.90;;;;;;5009023;28;20263;-74
2022/07/31 10:19:26;;;;;;;1.95;1.00;;;27.20;79.20;;;;;;5007776;28;20232;-72
2022/07/31 10:21:58;;;;;;;1.20;0.82;;;27.20;78.60;;;;;;5002874;28;20215;-74
2022/07/31 10:24:30;;;;;;;0.80;0.73;;;27.20;79.20;;;;;;5012667;28;20260;-72
2022/07/31 10:27:02;;;;;;;1.08;0.75;;;27.30;79.80;;;;;;5009806;28;20207;-72
2022/07/31 10:29:31;;;;;;;1.08;0.77;;;27.50;80.00;;;;;;5019628;28;20298;-67
2022/07/31 10:31:57;;;;;;;1.15;0.90;;;27.70;80.00;;;;;;5018370;28;20189;-70
2022/07/31 10:34:25;;;;;;;0.98;0.75;;;28.00;79.80;;;;;;5015631;28;20179;-70
2022/07/31 10:37:01;;;;;;;0.73;0.70;;;28.10;79.10;;;;;;5018754;28;20203;-69
2022/07/31 10:39:57;;;;;;;3.55;0.68;;;28.20;78.70;;;;;;5020416;28;20292;-68
2022/07/31 10:42:47;;;;;;;0.98;0.75;;;28.40;78.60;;;;;;5018635;28;20281;-71
2022/07/31 10:45:17;;;;;;;1.20;0.90;;;28.50;76.70;;;;;;5017627;28;20203;-70
2022/07/31 10:47:59;;;;;;;1.00;0.80;;;28.50;76.70;;;;;;5019234;28;20218;-67
2022/07/31 10:50:32;;;;;;;1.23;0.90;;;28.60;76.40;;;;;;5020006;28;20214;-69
2022/07/31 10:53:15;;;;;;;0.90;0.80;;;28.50;76.60;;;;;;5019168;28;20175;-67
2022/07/31 10:55:41;;;;;;;0.70;0.70;;;28.50;75.50;;;;;;5015516;28;20170;-71
2022/07/31 10:58:09;;;;;;;0.80;0.70;;;28.40;76.10;;;;;;5017363;28;20302;-66
2022/07/31 11:00:35;;;;;;;0.88;0.63;;;28.30;76.20;;;;;;5016404;28;20214;-68
2022/07/31 11:03:15;;;;;;;0.90;0.80;;;28.30;76.50;;;;;;5015777;28;20179;-72
2022/07/31 11:05:55;;;;;;;0.85;0.60;;;28.40;76.10;;;;;;5015227;28;20243;-71
2022/07/31 11:08:23;;;;;;;1.00;0.82;;;28.50;76.00;;;;;;5017730;28;20171;-68
2022/07/31 11:10:54;;;;;;;0.90;0.80;;;28.50;75.50;;;;;;5018823;28;20180;-71
2022/07/31 11:13:24;;;;;;;1.20;1.00;;;28.50;75.10;;;;;;5018392;28;20222;-69
2022/07/31 11:16:01;;;;;;;0.90;0.77;;;28.50;74.80;;;;;;5018734;28;20199;-68
2022/07/31 11:18:26;;;;;;;1.38;0.68;;;28.40;75.00;;;;;;5017691;28;20213;-69
2022/07/31 11:21:09;;;;;;;0.63;0.60;;;28.40;76.00;;;;;;5021548;28;20198;-69
2022/07/31 11:23:36;;;;;;;1.67;0.65;;;28.60;75.00;;;;;;5019681;28;20167;-70
2022/07/31 11:26:06;;;;;;;1.35;0.80;;;28.70;75.40;;;;;;5018219;28;20205;-69
2022/07/31 11:28:33;;;;;;;0.90;0.70;;;28.80;74.90;;;;;;5019188;28;20215;-69
2022/07/31 11:30:59;;;;;;;1.77;1.00;;;28.90;75.00;;;;;;5023834;28;20183;-72
2022/07/31 11:33:34;;;;;;;1.05;0.88;;;29.00;75.50;;;;;;5020576;28;20195;-71
2022/07/31 11:36:15;;;;;;;1.20;0.88;;;29.20;74.70;;;;;;5022959;28;20175;-69
2022/07/31 11:38:46;;;;;;;0.70;0.70;;;29.50;73.50;;;;;;5019633;28;20207;-69
2022/07/31 11:41:14;;;;;;;1.00;0.90;;;29.70;75.20;;;;;;5019288;28;20221;-67
2022/07/31 11:43:54;;;;;;;1.13;0.80;;;29.90;73.80;;;;;;5036534;28;20251;-69
2022/07/31 11:46:28;;;;;;;1.15;0.70;;;30.00;71.90;;;;;;5020102;28;20187;-71
2022/07/31 11:48:57;;;;;;;1.00;0.88;;;30.00;70.70;;;;;;5016616;28;20426;-70
2022/07/31 11:51:24;;;;;;;1.70;0.90;;;30.00;71.40;;;;;;5015658;28;20290;-68
2022/07/31 11:53:56;;;;;;;1.58;0.90;;;30.00;71.10;;;;;;5017262;28;20179;-70
2022/07/31 11:56:25;;;;;;;0.98;0.77;;;30.00;71.20;;;;;;5018231;28;20187;-72
2022/07/31 11:58:56;;;;;;;1.08;0.93;;;30.00;70.30;;;;;;5017113;28;20386;-69
2022/07/31 12:01:26;;;;;;;4.82;1.00;;;30.00;69.70;;;;;;5017783;28;20199;-70
2022/07/31 12:03:54;;;;;;;1.00;0.85;;;29.90;69.80;;;;;;5018459;28;20215;-69
2022/07/31 12:06:20;;;;;;;0.90;0.75;;;30.00;70.60;;;;;;5021401;28;20273;-67
2022/07/31 12:08:47;;;;;;;1.27;1.00;;;30.20;70.50;;;;;;5019644;28;20194;-72
2022/07/31 12:11:19;;;;;;;0.77;0.70;;;30.30;68.70;;;;;;5020845;28;20257;-72
2022/07/31 12:13:50;;;;;;;0.70;0.70;;;30.50;68.70;;;;;;5022066;28;20185;-72
2022/07/31 12:16:17;;;;;;;1.05;0.85;;;30.60;67.70;;;;;;5020886;28;20327;-69
2022/07/31 12:18:57;;;;;;;0.88;0.80;;;30.60;67.90;;;;;;5022284;28;20206;-74
2022/07/31 12:21:37;;;;;;;0.80;0.80;;;30.70;65.50;;;;;;5020008;28;20186;-73
2022/07/31 12:24:13;;;;;;;1.00;0.80;;;30.80;67.20;;;;;;5018766;28;20201;-75
2022/07/31 12:26:47;;;;;;;0.82;0.70;;;30.90;67.60;;;;;;5025059;28;20209;-76
2022/07/31 12:29:15;;;;;;;1.35;0.70;;;31.00;67.30;;;;;;5024215;28;20220;-74
2022/07/31 12:31:52;;;;;;;1.40;0.82;;;31.20;67.30;;;;;;5025336;28;20212;-75
2022/07/31 12:34:39;;;;;;;1.85;1.02;;;31.30;63.50;;;;;;5019681;28;20170;-76
2022/07/31 12:37:13;;;;;;;0.95;0.85;;;31.40;63.30;;;;;;5026197;28;20178;-73
2022/07/31 12:39:50;;;;;;;1.30;0.90;;;31.50;62.10;;;;;;5020736;28;20186;-73
2022/07/31 12:42:36;;;;;;;1.35;1.00;;;31.70;63.50;;;;;;5035926;28;20258;-74
2022/07/31 12:45:06;;;;;;;1.48;1.00;;;31.90;61.90;;;;;;5042767;28;20221;-76
2022/07/31 12:47:33;;;;;;;1.00;0.80;;;31.90;63.20;;;;;;5017982;28;20198;-74
2022/07/31 12:50:02;;;;;;;0.90;0.68;;;32.00;63.50;;;;;;5011989;28;20174;-75
2022/07/31 12:52:30;;;;;;;1.30;0.80;;;32.10;63.60;;;;;;5036086;28;20185;-70
2022/07/31 12:54:58;;;;;;;0.93;0.80;;;32.10;63.10;;;;;;5020468;28;20194;-74
2022/07/31 12:57:24;;;;;;;1.40;0.77;;;32.10;62.10;;;;;;5019396;28;20213;-71